createdAt,value
2019-03-16T00:02:10.826Z,2.57
2019-03-16T00:04:40.923Z,2.40
2019-03-16T00:07:11.055Z,1.20
2019-03-16T00:09:41.193Z,1.20
2019-03-16T00:12:11.335Z,1.10
2019-03-16T00:14:41.489Z,1.20
2019-03-16T00:17:22.895Z,1.40
2019-03-16T00:19:43.799Z,1.10
2019-03-16T00:22:13.931Z,1.27
2019-03-16T00:24:44.042Z,1.60
2019-03-16T00:27:14.187Z,1.20
2019-03-16T00:29:44.389Z,1.40
2019-03-16T00:32:14.593Z,1.20
2019-03-16T00:34:47.697Z,2.55
2019-03-16T00:37:19.552Z,1.43
2019-03-16T00:39:52.855Z,1.70
2019-03-16T00:42:26.203Z,1.90
2019-03-16T00:44:56.763Z,1.50
2019-03-16T00:47:30.238Z,4.03
2019-03-16T00:50:00.595Z,1.30
2019-03-16T00:52:34.080Z,1.30
2019-03-16T00:55:06.091Z,1.20
2019-03-16T00:57:41.720Z,1.40
2019-03-16T01:00:13.534Z,1.30
2019-03-16T01:02:43.951Z,1.40
2019-03-16T01:05:16.709Z,1.37
2019-03-16T01:07:53.083Z,1.40
2019-03-16T01:10:24.907Z,1.50
2019-03-16T01:12:58.244Z,1.20
2019-03-16T01:15:29.260Z,1.33
2019-03-16T01:18:03.800Z,1.43
2019-03-16T01:20:37.539Z,1.33
2019-03-16T01:23:08.037Z,1.30
2019-03-16T01:25:40.154Z,1.30
2019-03-16T01:28:14.699Z,1.43
2019-03-16T01:30:47.686Z,1.37
2019-03-16T01:33:18.954Z,1.60
2019-03-16T01:35:52.701Z,1.20
2019-03-16T01:38:23.311Z,1.40
2019-03-16T01:40:55.277Z,1.40
2019-03-16T01:43:28.381Z,1.60
2019-03-16T01:45:59.952Z,2.03
2019-03-16T01:48:35.287Z,1.20
2019-03-16T01:51:05.459Z,1.33
2019-03-16T01:53:37.651Z,1.30
2019-03-16T01:56:10.429Z,1.37
2019-03-16T01:58:41.089Z,1.20
2019-03-16T02:01:13.145Z,1.30
2019-03-16T02:03:43.580Z,1.30
2019-03-16T02:06:13.699Z,1.30
2019-03-16T02:08:44.333Z,2.13
2019-03-16T02:11:15.065Z,1.40
2019-03-16T02:13:45.499Z,1.40
2019-03-16T02:16:16.846Z,1.40
2019-03-16T02:18:49.222Z,1.70
2019-03-16T02:21:24.974Z,1.50
2019-03-16T02:23:56.566Z,1.60
2019-03-16T02:26:29.870Z,1.57
2019-03-16T02:29:03.080Z,1.30
2019-03-16T02:31:33.407Z,1.30
2019-03-16T02:34:05.528Z,1.40
2019-03-16T02:36:36.244Z,2.90
2019-03-16T02:39:07.675Z,1.40
2019-03-16T02:41:39.618Z,1.30
2019-03-16T02:44:13.180Z,1.30
2019-03-16T02:46:44.306Z,1.50
2019-03-16T02:49:16.170Z,1.40
2019-03-16T02:51:46.646Z,1.20
2019-03-16T02:54:23.943Z,1.33
2019-03-16T02:56:57.356Z,1.20
2019-03-16T02:59:27.872Z,1.33
2019-03-16T03:02:00.033Z,1.37
2019-03-16T03:04:30.472Z,1.43
2019-03-16T03:07:03.913Z,1.30
2019-03-16T03:09:35.749Z,1.37
2019-03-16T03:12:06.555Z,1.30
2019-03-16T03:14:39.303Z,1.17
2019-03-16T03:17:11.980Z,1.37
2019-03-16T03:19:42.231Z,1.30
2019-03-16T03:22:12.614Z,1.23
2019-03-16T03:24:44.917Z,1.23
2019-03-16T03:27:15.567Z,1.53
2019-03-16T03:29:46.275Z,1.20
2019-03-16T03:32:17.930Z,1.20
2019-03-16T03:34:48.673Z,1.33
2019-03-16T03:37:20.580Z,1.37
2019-03-16T03:39:54.666Z,1.40
2019-03-16T03:42:27.100Z,1.30
2019-03-16T03:44:59.385Z,1.20
2019-03-16T03:47:29.879Z,1.70
2019-03-16T03:50:00.538Z,1.30
2019-03-16T03:52:31.279Z,1.30
2019-03-16T03:55:04.125Z,1.20
2019-03-16T03:57:39.107Z,1.40
2019-03-16T04:00:11.624Z,1.40
2019-03-16T04:02:44.608Z,1.33
2019-03-16T04:05:15.542Z,1.20
2019-03-16T04:07:45.995Z,1.63
2019-03-16T04:10:16.476Z,1.63
2019-03-16T04:12:48.727Z,1.50
2019-03-16T04:15:23.230Z,1.10
2019-03-16T04:17:53.428Z,1.30
2019-03-16T04:20:24.247Z,1.30
2019-03-16T04:22:56.353Z,1.23
2019-03-16T04:25:26.870Z,1.30
2019-03-16T04:27:57.610Z,1.20
2019-03-16T04:30:28.122Z,1.30
2019-03-16T04:32:59.812Z,2.23
2019-03-16T04:35:32.379Z,1.30
2019-03-16T04:38:04.758Z,1.27
2019-03-16T04:40:34.937Z,1.27
2019-03-16T04:43:05.253Z,1.10
2019-03-16T04:45:35.156Z,1.30
2019-03-16T04:48:05.467Z,1.37
2019-03-16T04:50:35.491Z,1.80
2019-03-16T04:53:05.641Z,2.60
2019-03-16T04:55:35.736Z,1.87
2019-03-16T04:58:05.797Z,1.30
2019-03-16T05:00:35.914Z,1.37
2019-03-16T05:03:08.374Z,1.77
2019-03-16T05:05:38.246Z,1.73
2019-03-16T05:08:10.185Z,1.20
2019-03-16T05:10:40.294Z,1.20
2019-03-16T05:13:10.424Z,1.23
2019-03-16T05:15:40.719Z,1.23
2019-03-16T05:18:12.093Z,1.10
2019-03-16T05:20:42.595Z,1.10
2019-03-16T05:23:12.626Z,1.20
2019-03-16T05:25:42.692Z,1.20
2019-03-16T05:28:12.739Z,1.20
2019-03-16T05:30:42.869Z,1.30
2019-03-16T05:33:13.028Z,1.20
2019-03-16T05:35:43.078Z,1.50
2019-03-16T05:38:13.251Z,1.10
2019-03-16T05:40:43.492Z,1.63
2019-03-16T05:43:13.843Z,1.00
2019-03-16T05:45:43.978Z,1.27
2019-03-16T05:48:14.146Z,1.00
2019-03-16T05:50:44.544Z,1.47
2019-03-16T05:53:14.660Z,1.00
2019-03-16T05:55:44.874Z,1.13
2019-03-16T05:58:14.942Z,1.30
2019-03-16T06:00:44.982Z,2.00
2019-03-16T06:03:15.084Z,1.20
2019-03-16T06:05:45.188Z,1.13
2019-03-16T06:08:15.562Z,1.27
2019-03-16T06:10:45.707Z,1.10
2019-03-16T06:13:15.914Z,1.10
2019-03-16T06:15:45.979Z,1.67
2019-03-16T06:18:16.057Z,1.43
2019-03-16T06:20:46.152Z,1.17
2019-03-16T06:23:16.222Z,1.10
2019-03-16T06:25:46.996Z,1.10
2019-03-16T06:28:25.980Z,1.10
2019-03-16T06:30:56.668Z,1.07
2019-03-16T06:33:26.827Z,1.00
2019-03-16T06:35:57.179Z,1.10
2019-03-16T06:38:27.735Z,1.10
2019-03-16T06:40:57.909Z,1.10
2019-03-16T06:43:32.266Z,1.10
2019-03-16T06:46:04.999Z,1.10
2019-03-16T06:48:35.150Z,1.10
2019-03-16T06:51:08.514Z,1.10
2019-03-16T06:53:39.000Z,1.53
2019-03-16T06:56:21.810Z,1.30
2019-03-16T06:58:58.241Z,1.10
2019-03-16T07:01:26.913Z,1.53
2019-03-16T07:04:08.678Z,1.30
2019-03-16T07:06:38.912Z,1.30
2019-03-16T07:09:11.658Z,1.10
2019-03-16T07:11:41.829Z,1.03
2019-03-16T07:14:12.623Z,1.17
2019-03-16T07:16:42.933Z,1.20
2019-03-16T07:19:16.609Z,1.20
2019-03-16T07:21:57.199Z,1.23
2019-03-16T07:24:30.957Z,1.70
2019-03-16T07:27:01.343Z,1.80
2019-03-16T07:29:32.987Z,1.30
2019-03-16T07:32:03.077Z,5.07
2019-03-16T07:34:33.251Z,4.80
2019-03-16T07:37:03.433Z,3.40
2019-03-16T07:39:33.584Z,3.20
2019-03-16T07:42:04.823Z,3.90
2019-03-16T07:44:34.996Z,3.23
2019-03-16T07:47:05.713Z,2.80
2019-03-16T07:49:38.952Z,2.30
2019-03-16T07:52:09.678Z,2.30
2019-03-16T07:54:40.153Z,2.53
2019-03-16T07:57:10.719Z,1.87
2019-03-16T07:59:42.239Z,2.83
2019-03-16T08:02:12.875Z,1.70
2019-03-16T08:04:43.632Z,1.60
2019-03-16T08:07:14.226Z,2.47
2019-03-16T08:09:44.393Z,3.00
2019-03-16T08:12:14.469Z,3.00
2019-03-16T08:14:44.560Z,1.60
2019-03-16T08:17:14.782Z,1.70
2019-03-16T08:19:45.136Z,1.50
2019-03-16T08:22:16.366Z,2.17
2019-03-16T08:24:46.706Z,1.93
2019-03-16T08:27:17.589Z,1.90
2019-03-16T08:29:47.827Z,2.73
2019-03-16T08:32:18.285Z,1.57
2019-03-16T08:34:48.588Z,1.40
2019-03-16T08:37:18.719Z,2.60
2019-03-16T08:39:48.826Z,2.47
2019-03-16T08:42:19.439Z,1.75
2019-03-16T08:44:49.754Z,2.07
2019-03-16T08:47:19.935Z,1.73
2019-03-16T08:49:50.377Z,2.03
2019-03-16T08:52:20.682Z,1.70
2019-03-16T08:54:50.739Z,2.33
2019-03-16T08:57:20.835Z,4.03
2019-03-16T08:59:51.002Z,5.33
2019-03-16T09:02:21.487Z,3.80
2019-03-16T09:04:51.700Z,1.70
2019-03-16T09:07:21.974Z,1.97
2019-03-16T09:09:52.364Z,1.90
2019-03-16T09:12:23.115Z,2.30
2019-03-16T09:14:53.420Z,1.33
2019-03-16T09:17:23.708Z,1.50
2019-03-16T09:19:53.966Z,1.40
2019-03-16T09:22:24.278Z,1.40
2019-03-16T09:24:54.391Z,1.27
2019-03-16T09:27:31.136Z,1.57
2019-03-16T09:29:56.696Z,1.40
2019-03-16T09:32:26.987Z,1.87
2019-03-16T09:34:57.334Z,1.30
2019-03-16T09:37:27.433Z,1.20
2019-03-16T09:39:57.549Z,1.33
2019-03-16T09:42:27.671Z,1.30
2019-03-16T09:44:57.812Z,1.40
2019-03-16T09:47:28.149Z,1.90
2019-03-16T09:49:58.441Z,1.30
2019-03-16T09:52:28.556Z,2.13
2019-03-16T09:54:58.791Z,1.20
2019-03-16T09:57:28.925Z,1.37
2019-03-16T09:59:58.999Z,1.50
2019-03-16T10:02:29.217Z,2.00
2019-03-16T10:04:59.548Z,1.40
2019-03-16T10:07:29.724Z,1.90
2019-03-16T10:10:00.348Z,1.60
2019-03-16T10:12:30.553Z,1.50
2019-03-16T10:15:00.713Z,1.43
2019-03-16T10:17:30.793Z,1.60
2019-03-16T10:20:00.968Z,1.50
2019-03-16T10:22:31.067Z,1.60
2019-03-16T10:25:01.563Z,1.40
2019-03-16T10:27:31.750Z,1.77
2019-03-16T10:30:02.599Z,1.67
2019-03-16T10:32:32.711Z,1.40
2019-03-16T10:35:02.966Z,1.60
2019-03-16T10:37:33.045Z,1.70
2019-03-16T10:40:03.166Z,1.77
2019-03-16T10:42:33.504Z,1.40
2019-03-16T10:45:03.978Z,1.50
2019-03-16T10:47:34.717Z,1.93
2019-03-16T10:50:06.838Z,1.55
2019-03-16T10:52:37.019Z,1.60
2019-03-16T10:55:07.775Z,1.47
2019-03-16T10:57:37.882Z,1.67
2019-03-16T11:00:08.419Z,1.40
2019-03-16T11:02:38.687Z,1.30
2019-03-16T11:05:09.011Z,1.80
2019-03-16T11:07:39.140Z,1.53
2019-03-16T11:10:09.342Z,1.40
2019-03-16T11:12:39.436Z,1.50
2019-03-16T11:15:09.618Z,1.53
2019-03-16T11:17:39.888Z,1.57
2019-03-16T11:20:10.320Z,1.50
2019-03-16T11:22:41.909Z,1.57
2019-03-16T11:25:12.111Z,1.53
2019-03-16T11:27:45.398Z,1.60
2019-03-16T11:30:17.914Z,1.40
2019-03-16T11:32:48.306Z,1.60
2019-03-16T11:35:18.493Z,1.50
2019-03-16T11:37:49.062Z,1.73
2019-03-16T11:40:19.472Z,3.47
2019-03-16T11:42:52.318Z,1.43
2019-03-16T11:45:22.490Z,1.60
2019-03-16T11:47:53.098Z,1.63
2019-03-16T11:50:23.217Z,1.63
2019-03-16T11:52:53.456Z,1.67
2019-03-16T11:55:23.756Z,1.63
2019-03-16T11:57:54.336Z,1.77
2019-03-16T12:00:31.979Z,1.60
2019-03-16T12:03:02.515Z,1.57
2019-03-16T12:05:32.900Z,1.67
2019-03-16T12:08:03.197Z,2.10
2019-03-16T12:10:33.314Z,3.00
2019-03-16T12:13:03.427Z,1.70
2019-03-16T12:15:33.557Z,1.70
2019-03-16T12:18:04.556Z,1.73
2019-03-16T12:20:34.799Z,1.53
2019-03-16T12:23:06.320Z,1.87
2019-03-16T12:25:36.486Z,1.80
2019-03-16T12:28:06.634Z,2.13
2019-03-16T12:30:36.586Z,1.70
2019-03-16T12:33:06.872Z,1.70
2019-03-16T12:35:37.234Z,2.57
2019-03-16T12:38:07.339Z,1.70
2019-03-16T12:40:37.418Z,2.13
2019-03-16T12:43:07.602Z,1.60
2019-03-16T12:45:37.563Z,1.90
2019-03-16T12:48:07.936Z,1.80
2019-03-16T12:50:38.223Z,1.90
2019-03-16T12:53:08.614Z,1.90
2019-03-16T12:55:38.988Z,2.13
2019-03-16T12:58:09.472Z,3.23
2019-03-16T13:00:39.609Z,2.00
2019-03-16T13:03:09.797Z,2.40
2019-03-16T13:05:39.939Z,1.80
2019-03-16T13:08:12.415Z,1.70
2019-03-16T13:10:42.613Z,1.67
2019-03-16T13:13:15.021Z,1.83
2019-03-16T13:15:45.768Z,1.90
2019-03-16T13:18:27.651Z,2.43
2019-03-16T13:20:58.007Z,1.93
2019-03-16T13:23:28.309Z,1.70
2019-03-16T13:26:02.319Z,1.70
2019-03-16T13:28:35.727Z,3.10
2019-03-16T13:31:11.347Z,1.70
2019-03-16T13:33:48.945Z,1.50
2019-03-16T13:36:19.093Z,1.50
2019-03-16T13:38:50.537Z,1.60
2019-03-16T13:41:20.776Z,1.90
2019-03-16T13:43:52.529Z,1.70
2019-03-16T13:46:22.719Z,1.93
2019-03-16T13:48:53.414Z,1.70
2019-03-16T13:51:23.575Z,2.00
2019-03-16T13:53:53.765Z,2.33
2019-03-16T13:56:24.004Z,2.17
2019-03-16T13:58:55.125Z,1.77
2019-03-16T14:01:25.450Z,2.10
2019-03-16T14:03:55.984Z,1.80
2019-03-16T14:06:26.159Z,1.70
2019-03-16T14:08:57.263Z,2.10
2019-03-16T14:11:27.570Z,1.90
2019-03-16T14:13:57.808Z,2.13
2019-03-16T14:16:27.881Z,4.80
2019-03-16T14:18:59.036Z,1.80
2019-03-16T14:21:29.110Z,2.00
2019-03-16T14:23:59.356Z,2.27
2019-03-16T14:26:30.002Z,1.87
2019-03-16T14:29:00.067Z,2.43
2019-03-16T14:31:30.140Z,2.17
2019-03-16T14:34:00.334Z,2.20
2019-03-16T14:36:30.649Z,3.20
2019-03-16T14:39:00.786Z,2.00
2019-03-16T14:41:30.972Z,2.10
2019-03-16T14:44:01.217Z,2.70
2019-03-16T14:46:31.655Z,2.90
2019-03-16T14:49:26.254Z,1.80
2019-03-16T14:51:56.350Z,1.83
2019-03-16T14:54:26.826Z,2.23
2019-03-16T14:56:56.920Z,2.03
2019-03-16T14:59:27.004Z,1.93
2019-03-16T15:01:57.213Z,1.80
2019-03-16T15:04:28.042Z,1.83
2019-03-16T15:06:58.332Z,1.63
2019-03-16T15:09:28.564Z,2.03
2019-03-16T15:11:58.938Z,1.67
2019-03-16T15:14:29.090Z,2.30
2019-03-16T15:16:59.293Z,1.83
2019-03-16T15:19:29.803Z,1.70
2019-03-16T15:22:00.135Z,1.60
2019-03-16T15:24:31.852Z,2.33
2019-03-16T15:27:03.009Z,2.43
2019-03-16T15:29:33.348Z,1.70
2019-03-16T15:32:04.983Z,1.90
2019-03-16T15:34:35.218Z,1.90
2019-03-16T15:37:06.276Z,1.97
2019-03-16T15:39:36.359Z,2.30
2019-03-16T15:42:07.202Z,1.90
2019-03-16T15:44:38.182Z,1.93
2019-03-16T15:47:09.071Z,2.45
2019-03-16T15:49:39.447Z,2.67
2019-03-16T15:52:09.571Z,1.60
2019-03-16T15:54:39.841Z,1.70
2019-03-16T15:57:10.055Z,1.97
2019-03-16T15:59:40.143Z,1.67
2019-03-16T16:02:10.411Z,1.90
2019-03-16T16:04:40.533Z,2.33
2019-03-16T16:07:11.198Z,3.60
2019-03-16T16:09:42.190Z,2.30
2019-03-16T16:12:12.263Z,2.30
2019-03-16T16:14:42.321Z,2.30
2019-03-16T16:17:12.471Z,1.90
2019-03-16T16:19:43.806Z,1.70
2019-03-16T16:22:17.064Z,1.70
2019-03-16T16:24:46.153Z,2.20
2019-03-16T16:27:16.571Z,1.93
2019-03-16T16:29:46.800Z,1.87
2019-03-16T16:32:18.766Z,1.80
2019-03-16T16:34:49.076Z,3.57
2019-03-16T16:37:19.190Z,1.80
2019-03-16T16:39:49.364Z,2.67
2019-03-16T16:42:19.681Z,1.73
2019-03-16T16:44:50.207Z,2.00
2019-03-16T16:47:20.383Z,2.10
2019-03-16T16:49:50.458Z,2.03
2019-03-16T16:52:20.612Z,2.77
2019-03-16T16:54:50.696Z,1.80
2019-03-16T16:57:20.745Z,2.20
2019-03-16T16:59:51.372Z,3.03
2019-03-16T17:02:21.699Z,2.07
2019-03-16T17:04:51.820Z,2.00
2019-03-16T17:07:21.892Z,2.45
2019-03-16T17:09:52.264Z,1.87
2019-03-16T17:12:22.499Z,2.33
2019-03-16T17:14:52.607Z,2.17
2019-03-16T17:17:34.742Z,2.27
2019-03-16T17:19:54.662Z,2.60
2019-03-16T17:22:24.807Z,2.30
2019-03-16T17:24:54.952Z,2.53
2019-03-16T17:27:26.864Z,4.25
2019-03-16T17:29:57.270Z,2.63
2019-03-16T17:32:27.722Z,2.60
2019-03-16T17:34:57.985Z,2.60
2019-03-16T17:37:28.400Z,2.73
2019-03-16T17:39:58.503Z,2.50
2019-03-16T17:42:28.719Z,4.03
2019-03-16T17:45:00.708Z,2.93
2019-03-16T17:47:30.927Z,3.07
2019-03-16T17:50:01.236Z,3.40
2019-03-16T17:52:32.564Z,3.20
2019-03-16T17:55:02.692Z,2.80
2019-03-16T17:57:33.278Z,2.70
2019-03-16T18:00:04.524Z,2.40
2019-03-16T18:02:34.646Z,2.80
2019-03-16T18:05:06.525Z,3.10
2019-03-16T18:07:36.883Z,2.60
2019-03-16T18:10:07.793Z,2.80
2019-03-16T18:12:38.300Z,2.77
2019-03-16T18:15:11.704Z,2.83
2019-03-16T18:17:41.190Z,2.53
2019-03-16T18:20:13.021Z,3.10
2019-03-16T18:22:43.234Z,2.90
2019-03-16T18:25:13.628Z,2.90
2019-03-16T18:27:43.797Z,3.53
2019-03-16T18:30:14.677Z,2.33
2019-03-16T18:32:45.115Z,3.37
2019-03-16T18:35:15.810Z,2.43
2019-03-16T18:37:45.915Z,3.40
2019-03-16T18:40:16.058Z,3.07
2019-03-16T18:42:48.715Z,2.67
2019-03-16T18:45:18.757Z,3.00
2019-03-16T18:47:49.009Z,3.70
2019-03-16T18:50:20.471Z,3.37
2019-03-16T18:52:50.676Z,2.90
2019-03-16T18:55:20.810Z,3.30
2019-03-16T18:57:52.311Z,4.43
2019-03-16T19:00:22.672Z,2.70
2019-03-16T19:02:52.910Z,3.40
2019-03-16T19:05:22.988Z,3.30
2019-03-16T19:07:53.419Z,3.70
2019-03-16T19:10:23.864Z,3.70
2019-03-16T19:12:54.103Z,3.20
2019-03-16T19:15:24.163Z,3.33
2019-03-16T19:17:59.039Z,4.40
2019-03-16T19:20:26.310Z,20.40
2019-03-16T19:22:56.804Z,8.73
2019-03-16T19:25:28.580Z,4.07
2019-03-16T19:27:59.254Z,3.50
2019-03-16T19:30:29.707Z,2.60
2019-03-16T19:32:59.835Z,3.20
2019-03-16T19:35:29.954Z,2.80
2019-03-16T19:38:00.098Z,5.13
2019-03-16T19:40:30.540Z,3.67
2019-03-16T19:43:01.119Z,3.73
2019-03-16T19:45:31.111Z,5.20
2019-03-16T19:48:03.100Z,3.67
2019-03-16T19:50:33.813Z,3.30
2019-03-16T19:53:04.064Z,3.40
2019-03-16T19:55:34.265Z,3.53
2019-03-16T19:58:04.467Z,3.83
2019-03-16T20:00:34.979Z,4.83
2019-03-16T20:03:05.156Z,5.03
2019-03-16T20:05:35.327Z,3.90
2019-03-16T20:08:08.154Z,3.62
2019-03-16T20:10:38.358Z,4.30
2019-03-16T20:13:09.096Z,5.00
2019-03-16T20:15:39.189Z,5.03
2019-03-16T20:18:09.410Z,4.30
2019-03-16T20:20:41.353Z,5.03
2019-03-16T20:23:11.671Z,5.27
2019-03-16T20:25:43.088Z,4.77
2019-03-16T20:28:13.191Z,5.30
2019-03-16T20:30:43.549Z,4.30
2019-03-16T20:33:13.932Z,3.70
2019-03-16T20:35:44.260Z,3.50
2019-03-16T20:38:15.450Z,4.60
2019-03-16T20:40:45.695Z,3.50
2019-03-16T20:43:16.568Z,3.00
2019-03-16T20:45:46.718Z,5.10
2019-03-16T20:48:17.153Z,3.37
2019-03-16T20:50:47.435Z,4.87
2019-03-16T20:53:17.525Z,3.30
2019-03-16T20:55:47.712Z,3.70
2019-03-16T20:58:24.278Z,4.40
2019-03-16T21:00:54.653Z,3.07
2019-03-16T21:03:25.362Z,2.90
2019-03-16T21:05:55.583Z,3.97
2019-03-16T21:08:25.784Z,3.13
2019-03-16T21:10:56.272Z,3.30
2019-03-16T21:13:26.436Z,6.67
2019-03-16T21:15:56.556Z,4.90
2019-03-16T21:18:26.869Z,4.30
2019-03-16T21:20:57.211Z,3.40
2019-03-16T21:23:27.344Z,2.63
2019-03-16T21:25:57.583Z,3.20
2019-03-16T21:28:27.787Z,2.80
2019-03-16T21:30:59.353Z,2.97
2019-03-16T21:33:30.108Z,3.00
2019-03-16T21:36:00.598Z,3.20
2019-03-16T21:38:30.940Z,3.17
2019-03-16T21:41:01.381Z,2.60
2019-03-16T21:43:31.469Z,2.80
2019-03-16T21:46:01.764Z,3.63
2019-03-16T21:48:32.262Z,2.47
2019-03-16T21:51:02.354Z,2.93
2019-03-16T21:53:33.700Z,2.63
2019-03-16T21:56:03.829Z,2.50
2019-03-16T21:58:34.031Z,2.97
2019-03-16T22:01:04.650Z,2.33
2019-03-16T22:03:41.860Z,2.37
2019-03-16T22:06:08.697Z,2.10
2019-03-16T22:08:38.875Z,2.20
2019-03-16T22:11:09.136Z,2.93
2019-03-16T22:13:39.501Z,2.50
2019-03-16T22:16:11.722Z,2.30
2019-03-16T22:18:41.475Z,1.97
2019-03-16T22:21:11.736Z,2.57
2019-03-16T22:23:41.951Z,2.80
2019-03-16T22:26:13.609Z,2.33
2019-03-16T22:28:43.695Z,2.20
2019-03-16T22:31:13.982Z,2.30
2019-03-16T22:33:53.866Z,3.27
2019-03-16T22:36:16.497Z,2.37
2019-03-16T22:38:46.671Z,2.97
2019-03-16T22:41:16.743Z,2.10
2019-03-16T22:43:46.914Z,2.80
2019-03-16T22:46:16.983Z,2.50
2019-03-16T22:48:48.362Z,2.20
2019-03-16T22:51:18.706Z,2.50
2019-03-16T22:53:48.963Z,2.20
2019-03-16T22:56:19.141Z,2.03
2019-03-16T22:58:53.528Z,2.60
2019-03-16T23:01:23.774Z,2.20
2019-03-16T23:04:06.206Z,3.77
2019-03-16T23:06:27.294Z,2.07
2019-03-16T23:08:57.669Z,3.97
2019-03-16T23:11:27.849Z,2.70
2019-03-16T23:14:04.807Z,2.00
2019-03-16T23:16:36.746Z,2.33
2019-03-16T23:19:06.980Z,4.37
2019-03-16T23:21:37.165Z,3.30
2019-03-16T23:24:07.281Z,1.90
2019-03-16T23:26:38.727Z,1.93
2019-03-16T23:29:09.490Z,3.20
2019-03-16T23:31:39.651Z,2.40
2019-03-16T23:34:19.139Z,2.37
2019-03-16T23:36:44.880Z,2.60
2019-03-16T23:39:15.014Z,2.50
2019-03-16T23:41:45.198Z,2.33
2019-03-16T23:44:15.438Z,2.60
2019-03-16T23:46:45.999Z,2.70
2019-03-16T23:49:16.163Z,2.40
2019-03-16T23:51:46.508Z,2.30
2019-03-16T23:54:17.066Z,2.30
2019-03-16T23:56:47.151Z,2.20
2019-03-16T23:59:17.252Z,2.40
